Time;durP1;ratioP1;P1;durP2;ratioP2;P2;SDS_P1;SDS_P2;PMS_P1;PMS_P2;Temp;Humidity;BMP_temperature;BMP_pressure;BME280_temperature;BME280_humidity;BME280_pressure;Samples;Min_cycle;Max_cycle;Signal;HPM_P1;HPM_P2
2023/01/05 00:04:50;;;;;;;;;;;;;;;18.65;38.37;100047.91;10632288;27;1191;-59
2023/01/05 00:09:50;;;;;;;;;;;;;;;18.67;38.10;100053.94;10632191;27;943;-58
2023/01/05 00:25:28;;;;;;;;;;;;;;;18.69;38.22;100051.97;10615924;27;1271;-58
2023/01/05 00:30:33;;;;;;;;;;;;;;;18.64;38.36;100046.25;10630890;27;998;-58
2023/01/05 00:35:33;;;;;;;;;;;;;;;18.60;38.32;100050.22;10613467;27;1909;-58
2023/01/05 00:40:33;;;;;;;;;;;;;;;18.56;38.26;100046.13;10612473;27;908;-59
2023/01/05 00:45:34;;;;;;;;;;;;;;;18.57;38.42;100045.19;10630259;27;1285;-58
2023/01/05 00:50:34;;;;;;;;;;;;;;;18.59;38.11;100053.84;10629952;27;855;-58
2023/01/05 00:55:34;;;;;;;;;;;;;;;18.59;38.13;100043.22;10629835;27;1970;-58
2023/01/05 01:00:34;;;;;;;;;;;;;;;18.55;38.35;100050.59;10630371;27;855;-58
2023/01/05 01:05:34;;;;;;;;;;;;;;;18.56;38.17;100059.41;10629895;27;1265;-58
2023/01/05 01:10:37;;;;;;;;;;;;;;;18.60;38.15;100053.69;10630458;27;931;-58
2023/01/05 01:15:37;;;;;;;;;;;;;;;18.58;38.03;100065.47;10628978;27;1905;-58
2023/01/05 01:20:38;;;;;;;;;;;;;;;18.57;38.26;100069.09;10628299;27;931;-59
2023/01/05 01:25:38;;;;;;;;;;;;;;;18.55;38.15;100068.38;10629264;27;1261;-58
2023/01/05 01:30:39;;;;;;;;;;;;;;;18.56;38.21;100072.72;10610628;27;851;-57
2023/01/05 01:35:39;;;;;;;;;;;;;;;18.54;38.07;100072.06;10627983;27;1909;-58
2023/01/05 01:40:39;;;;;;;;;;;;;;;18.54;38.16;100066.72;10635315;27;860;-58
2023/01/05 01:45:40;;;;;;;;;;;;;;;18.58;38.16;100076.94;10627879;27;1176;-59
2023/01/05 01:50:41;;;;;;;;;;;;;;;18.57;38.08;100088.56;10627755;27;930;-58
2023/01/05 01:55:41;;;;;;;;;;;;;;;18.52;38.06;100091.63;10627856;27;1914;-58
2023/01/05 02:00:41;;;;;;;;;;;;;;;18.50;38.09;100098.09;10609103;27;959;-58
2023/01/05 02:05:42;;;;;;;;;;;;;;;18.57;38.19;100099.19;10628278;27;1206;-58
2023/01/05 02:10:56;;;;;;;;;;;;;;;18.60;38.22;100101.56;10627072;27;879;-58
2023/01/05 02:16:06;;;;;;;;;;;;;;;18.59;38.21;100099.06;10608585;27;1980;-58
2023/01/05 02:21:06;;;;;;;;;;;;;;;18.58;38.34;100106.19;10608400;27;892;-58
2023/01/05 02:26:25;;;;;;;;;;;;;;;18.58;38.01;100116.81;10608085;27;2475;-58
2023/01/05 02:31:39;;;;;;;;;;;;;;;18.60;38.10;100112.19;10626479;27;1006;-58
2023/01/05 02:36:52;;;;;;;;;;;;;;;18.59;37.96;100113.19;10626518;27;1921;-59
2023/01/05 02:41:56;;;;;;;;;;;;;;;18.61;37.88;100132.50;10608631;27;1285;-58
2023/01/05 02:47:14;;;;;;;;;;;;;;;18.64;38.02;100123.38;10626152;28;1026;-58
2023/01/05 02:52:14;;;;;;;;;;;;;;;18.63;38.12;100133.16;10625942;27;1259;-58
2023/01/05 02:57:45;;;;;;;;;;;;;;;18.64;37.90;100136.66;10592053;28;1959;-58
2023/01/05 03:02:48;;;;;;;;;;;;;;;18.58;37.93;100137.25;10610939;27;1693;-58
2023/01/05 03:07:48;;;;;;;;;;;;;;;18.61;37.79;100152.94;10625696;28;922;-59
2023/01/05 03:18:08;;;;;;;;;;;;;;;18.58;37.59;100170.00;10610066;28;1909;-58
2023/01/05 03:39:25;;;;;;;;;;;;;;;18.66;37.91;100191.38;10610455;28;639;-57
2023/01/05 03:44:25;;;;;;;;;;;;;;;18.65;37.86;100195.03;10611992;27;1277;-58
2023/01/05 03:49:25;;;;;;;;;;;;;;;18.60;37.81;100202.63;10632672;27;991;-58
2023/01/05 03:54:25;;;;;;;;;;;;;;;18.60;38.02;100207.09;10633029;27;1914;-58
2023/01/05 03:59:26;;;;;;;;;;;;;;;18.49;38.03;100211.56;10632844;27;927;-58
2023/01/05 04:04:26;;;;;;;;;;;;;;;18.51;37.78;100224.72;10633118;27;1203;-58
2023/01/05 04:09:26;;;;;;;;;;;;;;;18.53;37.98;100236.06;10631969;27;907;-58
2023/01/05 04:14:26;;;;;;;;;;;;;;;18.56;37.88;100243.75;10631621;27;1910;-59
2023/01/05 04:19:26;;;;;;;;;;;;;;;18.57;38.13;100257.88;10632637;27;1025;-58
2023/01/05 04:24:27;;;;;;;;;;;;;;;18.58;37.89;100260.41;10612747;27;1202;-58
2023/01/05 04:29:27;;;;;;;;;;;;;;;18.61;37.68;100268.13;10632762;27;848;-58
2023/01/05 04:34:27;;;;;;;;;;;;;;;18.51;38.32;100284.06;10630503;27;1905;-59
2023/01/05 04:39:27;;;;;;;;;;;;;;;18.49;38.44;100299.31;10631265;27;920;-59
2023/01/05 04:44:27;;;;;;;;;;;;;;;18.41;37.96;100307.16;10630998;27;1186;-59
2023/01/05 04:49:27;;;;;;;;;;;;;;;18.36;38.11;100311.22;10630790;27;1031;-59
2023/01/05 04:54:28;;;;;;;;;;;;;;;18.37;37.72;100323.53;10630973;27;1909;-59
2023/01/05 04:59:28;;;;;;;;;;;;;;;18.39;37.73;100332.19;10612214;27;868;-59
2023/01/05 05:04:28;;;;;;;;;;;;;;;18.40;37.80;100348.00;10630021;27;1202;-59
2023/01/05 05:09:28;;;;;;;;;;;;;;;18.41;37.52;100356.81;10629971;27;848;-59
2023/01/05 05:14:29;;;;;;;;;;;;;;;18.39;37.57;100367.59;10629115;27;1965;-59
2023/01/05 05:19:29;;;;;;;;;;;;;;;18.39;37.70;100377.38;10629798;27;939;-59
2023/01/05 05:24:29;;;;;;;;;;;;;;;18.38;37.51;100389.03;10628809;27;1298;-59
2023/01/05 05:29:29;;;;;;;;;;;;;;;18.37;37.45;100395.31;10628577;27;986;-59
2023/01/05 05:34:29;;;;;;;;;;;;;;;18.38;37.40;100402.31;10628581;27;1961;-59
2023/01/05 05:39:29;;;;;;;;;;;;;;;18.33;37.42;100413.34;10609862;27;923;-59
2023/01/05 05:44:30;;;;;;;;;;;;;;;18.28;37.38;100420.06;10628379;27;1197;-59
2023/01/05 05:49:30;;;;;;;;;;;;;;;18.33;37.27;100426.63;10627872;27;864;-59
2023/01/05 05:54:30;;;;;;;;;;;;;;;18.36;37.24;100433.50;10627649;27;1964;-59
2023/01/05 05:59:30;;;;;;;;;;;;;;;18.37;37.25;100430.72;10627420;27;916;-59
2023/01/05 06:04:30;;;;;;;;;;;;;;;18.40;37.24;100450.84;10627651;27;1176;-59
2023/01/05 06:09:31;;;;;;;;;;;;;;;18.41;37.17;100464.00;10626964;27;858;-59
2023/01/05 06:14:31;;;;;;;;;;;;;;;18.37;37.33;100461.78;10627918;27;1976;-59
2023/01/05 06:19:31;;;;;;;;;;;;;;;18.34;37.07;100470.84;10627396;27;860;-59
2023/01/05 06:24:31;;;;;;;;;;;;;;;18.37;37.28;100473.25;10608223;27;1281;-59
2023/01/05 06:29:31;;;;;;;;;;;;;;;18.41;37.26;100485.28;10626590;27;1036;-59
2023/01/05 06:34:32;;;;;;;;;;;;;;;18.42;36.97;100496.75;10608441;27;1882;-59
2023/01/05 06:39:32;;;;;;;;;;;;;;;18.44;37.12;100510.75;10626878;27;1054;-59
2023/01/05 06:44:32;;;;;;;;;;;;;;;18.42;37.07;100521.50;10626085;27;1196;-59
2023/01/05 06:49:32;;;;;;;;;;;;;;;18.47;36.81;100537.88;10626108;28;1122;-59
2023/01/05 06:54:32;;;;;;;;;;;;;;;18.49;37.03;100538.59;10626407;27;1902;-59
2023/01/05 06:59:33;;;;;;;;;;;;;;;18.45;36.98;100558.47;10626615;28;923;-60
2023/01/05 07:04:33;;;;;;;;;;;;;;;18.45;36.90;100566.44;10626309;27;1212;-59
2023/01/05 07:09:33;;;;;;;;;;;;;;;18.45;36.70;100581.56;10626849;28;1112;-59
2023/01/05 07:14:33;;;;;;;;;;;;;;;18.45;36.81;100600.16;10609383;27;1937;-63
2023/01/05 07:19:33;;;;;;;;;;;;;;;18.44;37.03;100601.97;10632107;27;860;-58
2023/01/05 07:24:34;;;;;;;;;;;;;;;18.43;36.86;100615.41;10633995;27;1271;-59
2023/01/05 07:29:34;;;;;;;;;;;;;;;18.40;36.90;100620.97;10634040;27;913;-59
2023/01/05 07:34:34;;;;;;;;;;;;;;;18.39;36.85;100621.94;10615242;27;1968;-59
2023/01/05 07:39:34;;;;;;;;;;;;;;;18.39;36.78;100630.78;10633698;27;959;-59
2023/01/05 07:44:34;;;;;;;;;;;;;;;18.41;36.91;100649.25;10632915;27;1282;-59
2023/01/05 07:49:35;;;;;;;;;;;;;;;18.39;36.73;100662.69;10632780;27;864;-58
2023/01/05 07:54:35;;;;;;;;;;;;;;;18.41;37.15;100670.53;10632997;27;1898;-59
2023/01/05 07:59:36;;;;;;;;;;;;;;;18.45;37.10;100682.59;10632239;27;1544;-59
2023/01/05 08:04:36;;;;;;;;;;;;;;;18.49;36.98;100699.94;10632428;27;1324;-58
2023/01/05 08:14:55;;;;;;;;;;;;;;;18.50;36.99;100722.91;10631958;27;1909;-58
2023/01/05 08:19:56;;;;;;;;;;;;;;;18.49;37.01;100734.50;10632760;27;828;-58
2023/01/05 08:24:56;;;;;;;;;;;;;;;18.47;36.86;100737.28;10612954;27;1200;-58
2023/01/05 08:29:57;;;;;;;;;;;;;;;18.45;36.89;100751.72;10631502;27;971;-58
2023/01/05 08:34:57;;;;;;;;;;;;;;;18.48;36.75;100757.59;10630564;27;1913;-58
2023/01/05 08:39:57;;;;;;;;;;;;;;;18.52;36.68;100769.66;10630806;27;934;-58
2023/01/05 08:44:57;;;;;;;;;;;;;;;18.47;36.76;100787.81;10630551;27;1176;-58
2023/01/05 08:49:57;;;;;;;;;;;;;;;18.49;37.00;100806.31;10612559;27;804;-58
2023/01/05 08:54:58;;;;;;;;;;;;;;;18.51;37.22;100822.97;10611683;27;1980;-58
2023/01/05 08:59:58;;;;;;;;;;;;;;;18.54;37.15;100830.69;10629979;27;1028;-58
2023/01/05 09:04:58;;;;;;;;;;;;;;;18.61;37.59;100844.34;10629609;27;1182;-58
2023/01/05 09:09:58;;;;;;;;;;;;;;;18.63;37.31;100855.69;10630125;27;914;-57
2023/01/05 09:14:58;;;;;;;;;;;;;;;18.67;37.49;100873.09;10629166;27;1917;-58
2023/01/05 09:20:02;;;;;;;;;;;;;;;18.73;37.91;100876.06;10629846;27;838;-58
2023/01/05 09:25:03;;;;;;;;;;;;;;;18.79;37.58;100885.31;10630226;27;1198;-58
2023/01/05 09:30:03;;;;;;;;;;;;;;;18.85;36.87;100898.94;10630227;27;788;-58
2023/01/05 09:35:04;;;;;;;;;;;;;;;18.87;36.95;100915.63;10631958;27;1914;-58
2023/01/05 09:40:05;;;;;;;;;;;;;;;18.90;36.83;100911.88;10630718;27;884;-58
2023/01/05 09:45:06;;;;;;;;;;;;;;;18.89;37.21;100916.34;10612263;27;1292;-56
2023/01/05 09:50:07;;;;;;;;;;;;;;;18.89;40.89;100929.66;10593404;27;1158;-57
2023/01/05 09:55:17;;;;;;;;;;;;;;;18.89;40.81;100934.13;10628248;27;1910;-58
2023/01/05 10:00:17;;;;;;;;;;;;;;;18.98;38.92;100949.31;10631145;27;851;-63
2023/01/05 10:05:17;;;;;;;;;;;;;;;19.06;45.52;100959.31;10593258;27;1209;-58
2023/01/05 10:10:36;;;;;;;;;;;;;;;19.01;45.25;100966.81;10609120;27;887;-59
2023/01/05 10:15:50;;;;;;;;;;;;;;;18.92;40.92;100978.28;10608529;27;1909;-58
2023/01/05 10:20:56;;;;;;;;;;;;;;;19.03;39.67;100970.22;10609008;27;915;-57
2023/01/05 10:25:58;;;;;;;;;;;;;;;19.19;40.80;100992.72;10626783;27;1182;-60
2023/01/05 10:30:59;;;;;;;;;;;;;;;19.27;40.40;101000.06;10627255;27;939;-59
2023/01/05 10:36:17;;;;;;;;;;;;;;;19.03;41.96;101012.78;10626331;27;1917;-59
2023/01/05 10:41:18;;;;;;;;;;;;;;;19.03;40.14;101023.44;10626356;28;887;-58
2023/01/05 10:46:20;;;;;;;;;;;;;;;18.93;39.83;101022.50;10626222;27;1258;-58
2023/01/05 10:51:20;;;;;;;;;;;;;;;18.86;41.83;101032.81;10628246;27;1016;-58
2023/01/05 10:56:24;;;;;;;;;;;;;;;18.80;38.92;101044.84;10616242;27;1967;-59
2023/01/05 11:01:26;;;;;;;;;;;;;;;18.87;39.41;101056.66;10635371;27;860;-58
2023/01/05 11:06:27;;;;;;;;;;;;;;;18.81;39.24;101058.97;10634384;27;1172;-59
2023/01/05 11:11:27;;;;;;;;;;;;;;;18.84;39.02;101074.72;10616281;27;792;-59
2023/01/05 11:16:32;;;;;;;;;;;;;;;18.85;38.30;101085.19;10615872;27;1902;-57
2023/01/05 11:21:36;;;;;;;;;;;;;;;18.88;38.61;101090.28;10615646;27;907;-61
2023/01/05 11:26:37;;;;;;;;;;;;;;;18.88;37.95;101100.91;10633574;27;1255;-61
2023/01/05 11:31:46;;;;;;;;;;;;;;;18.75;38.09;101108.22;10615645;27;852;-62
2023/01/05 11:37:03;;;;;;;;;;;;;;;18.80;38.67;101124.66;10633377;27;1917;-62
2023/01/05 11:42:05;;;;;;;;;;;;;;;18.82;38.90;101130.69;10614659;27;1196;-59
2023/01/05 11:47:06;;;;;;;;;;;;;;;18.93;38.49;101134.28;10633445;27;1031;-59
2023/01/05 11:52:15;;;;;;;;;;;;;;;18.94;38.42;101146.63;10633196;27;1256;-58
2023/01/05 11:57:16;;;;;;;;;;;;;;;18.97;38.06;101159.69;10614221;27;1960;-59
2023/01/05 12:02:35;;;;;;;;;;;;;;;18.97;38.05;101162.34;10631419;27;1271;-58
2023/01/05 12:07:35;;;;;;;;;;;;;;;18.89;38.32;101166.47;10632174;27;1173;-58
2023/01/05 12:13:08;;;;;;;;;;;;;;;18.99;38.41;101182.56;10613488;27;1247;-58
2023/01/05 12:18:08;;;;;;;;;;;;;;;19.11;38.27;101196.66;10575754;27;1959;-60
2023/01/05 12:23:27;;;;;;;;;;;;;;;19.20;37.98;101199.41;10631442;27;1177;-59
2023/01/05 12:28:35;;;;;;;;;;;;;;;19.09;38.62;101204.75;10631379;27;820;-58
2023/01/05 12:33:35;;;;;;;;;;;;;;;19.25;38.36;101212.34;10612469;27;1313;-58
2023/01/05 12:38:39;;;;;;;;;;;;;;;19.16;38.21;101224.59;10631980;27;1968;-58
2023/01/05 12:43:43;;;;;;;;;;;;;;;19.05;38.07;101242.41;10613064;27;1210;-58
2023/01/05 12:48:45;;;;;;;;;;;;;;;19.03;38.04;101249.66;10613052;27;987;-58
2023/01/05 12:53:48;;;;;;;;;;;;;;;19.01;38.02;101264.91;10611962;27;1164;-58
2023/01/05 12:58:50;;;;;;;;;;;;;;;19.05;37.81;101275.19;10629791;27;1906;-60
2023/01/05 13:03:55;;;;;;;;;;;;;;;19.12;37.88;101295.03;10611401;27;1176;-59
2023/01/05 13:09:01;;;;;;;;;;;;;;;19.02;38.00;101296.72;10611393;27;1028;-60
2023/01/05 13:14:05;;;;;;;;;;;;;;;18.89;38.25;101302.19;10628776;27;1270;-59
2023/01/05 13:19:44;;;;;;;;;;;;;;;18.85;38.38;101308.72;10611904;27;785;-59
2023/01/05 13:25:04;;;;;;;;;;;;;;;18.82;38.37;101318.75;10415567;28;1410;-59
2023/01/05 13:30:05;;;;;;;;;;;;;;;18.79;38.24;101329.63;10594213;27;1035;-58
2023/01/05 13:35:24;;;;;;;;;;;;;;;18.78;38.53;101330.59;10609657;27;1972;-59
2023/01/05 13:41:02;;;;;;;;;;;;;;;18.81;38.28;101346.34;10628771;27;935;-59
2023/01/05 13:46:06;;;;;;;;;;;;;;;18.88;38.30;101359.03;10414646;28;1508;-58
2023/01/05 13:51:24;;;;;;;;;;;;;;;18.94;37.76;101372.81;10581484;27;927;-60
2023/01/05 13:56:25;;;;;;;;;;;;;;;18.98;37.59;101379.63;10631078;27;1898;-59
2023/01/05 14:01:32;;;;;;;;;;;;;;;18.96;38.96;101390.38;10609592;27;921;-59
2023/01/05 14:06:33;;;;;;;;;;;;;;;19.18;40.97;101397.50;10629145;27;1188;-60
2023/01/05 14:11:35;;;;;;;;;;;;;;;19.34;41.38;101410.47;10610601;27;1069;-61
2023/01/05 14:16:38;;;;;;;;;;;;;;;19.36;41.29;101421.84;10627055;27;1902;-58
2023/01/05 14:21:47;;;;;;;;;;;;;;;19.40;41.59;101418.81;10627017;27;891;-60
2023/01/05 14:27:06;;;;;;;;;;;;;;;19.32;40.93;101434.53;10626441;27;1270;-60
2023/01/05 14:32:06;;;;;;;;;;;;;;;19.23;40.44;101452.09;10608163;27;1186;-59
2023/01/05 14:37:14;;;;;;;;;;;;;;;19.32;40.47;101461.19;10591297;27;1909;-58
2023/01/05 14:42:16;;;;;;;;;;;;;;;19.39;40.82;101470.38;10608222;27;2101;-61
2023/01/05 14:47:17;;;;;;;;;;;;;;;19.31;40.70;101486.09;10608515;28;865;-58
2023/01/05 14:52:18;;;;;;;;;;;;;;;19.32;40.43;101501.13;10607774;27;1261;-58
2023/01/05 14:57:19;;;;;;;;;;;;;;;19.11;38.46;101506.31;10607640;28;1918;-59
2023/01/05 15:02:21;;;;;;;;;;;;;;;19.08;39.04;101516.31;10608156;27;1286;-59
2023/01/05 15:07:30;;;;;;;;;;;;;;;19.08;38.97;101524.31;10608329;28;891;-59
2023/01/05 15:12:30;;;;;;;;;;;;;;;19.07;38.42;101525.31;10625681;27;1216;-59
2023/01/05 15:17:40;;;;;;;;;;;;;;;19.08;37.93;101548.28;10626235;28;1964;-59
2023/01/05 15:22:59;;;;;;;;;;;;;;;19.12;38.27;101560.41;10625697;27;1196;-59
2023/01/05 15:27:59;;;;;;;;;;;;;;;19.09;38.26;101564.13;10628696;28;939;-60
2023/01/05 15:33:03;;;;;;;;;;;;;;;19.03;38.99;101563.75;10626279;27;1188;-59
2023/01/05 15:38:32;;;;;;;;;;;;;;;19.10;38.70;101570.31;10608394;27;1910;-59
2023/01/05 15:43:33;;;;;;;;;;;;;;;19.05;38.43;101572.47;10611227;27;1421;-58
2023/01/05 15:48:43;;;;;;;;;;;;;;;19.05;38.45;101581.31;10633519;27;931;-59
2023/01/05 15:53:50;;;;;;;;;;;;;;;19.02;38.09;101594.00;10633584;27;1257;-58
2023/01/05 15:58:58;;;;;;;;;;;;;;;19.02;38.41;101607.31;10632437;27;1967;-58
2023/01/05 16:04:06;;;;;;;;;;;;;;;18.96;37.81;101613.94;10632273;27;1180;-58
2023/01/05 16:09:07;;;;;;;;;;;;;;;18.95;37.77;101614.91;10632773;27;825;-59
2023/01/05 16:14:27;;;;;;;;;;;;;;;19.17;37.82;101616.78;10632430;27;1187;-58
2023/01/05 16:19:31;;;;;;;;;;;;;;;19.14;37.54;101627.69;10631057;27;1634;-58
2023/01/05 16:24:50;;;;;;;;;;;;;;;19.06;37.70;101646.06;10632873;27;1172;-59
2023/01/05 16:29:50;;;;;;;;;;;;;;;18.96;37.94;101655.69;10613555;27;883;-59
2023/01/05 16:34:51;;;;;;;;;;;;;;;18.95;37.66;101661.97;10630810;27;1914;-58
2023/01/05 16:39:51;;;;;;;;;;;;;;;18.99;37.64;101674.94;10631316;27;991;-60
2023/01/05 16:44:54;;;;;;;;;;;;;;;18.99;38.26;101688.25;10612764;27;1413;-57
2023/01/05 16:49:55;;;;;;;;;;;;;;;18.99;37.83;101688.25;10611949;27;1026;-57
2023/01/05 16:55:13;;;;;;;;;;;;;;;18.99;37.67;101696.22;10612480;27;1959;-57
2023/01/05 17:00:29;;;;;;;;;;;;;;;18.99;37.52;101693.56;10630684;27;951;-57
2023/01/05 17:05:31;;;;;;;;;;;;;;;19.05;37.32;101709.09;10611336;27;1171;-57
2023/01/05 17:10:31;;;;;;;;;;;;;;;19.06;37.45;101715.25;10611741;27;901;-58
2023/01/05 17:15:32;;;;;;;;;;;;;;;19.11;37.25;101719.28;10610720;27;1905;-59
2023/01/05 17:20:34;;;;;;;;;;;;;;;19.12;37.07;101731.63;10629867;27;839;-57
2023/01/05 17:25:34;;;;;;;;;;;;;;;19.14;37.58;101744.84;10611341;27;1188;-58
2023/01/05 17:30:34;;;;;;;;;;;;;;;19.09;37.76;101749.63;10610517;27;1392;-59
2023/01/05 17:35:35;;;;;;;;;;;;;;;19.07;37.13;101759.56;10609982;27;1968;-59
2023/01/05 17:40:35;;;;;;;;;;;;;;;19.04;37.08;101775.75;10609993;27;983;-59
2023/01/05 17:45:36;;;;;;;;;;;;;;;18.98;37.29;101768.22;10628060;27;1298;-60
2023/01/05 17:50:37;;;;;;;;;;;;;;;19.01;37.21;101778.63;10609699;27;939;-60
2023/01/05 17:55:38;;;;;;;;;;;;;;;19.03;36.95;101784.69;10627917;27;1897;-59
2023/01/05 18:00:43;;;;;;;;;;;;;;;19.05;37.36;101804.94;10628241;27;1037;-59
2023/01/05 18:05:44;;;;;;;;;;;;;;;19.07;37.30;101802.16;10628182;27;1254;-59
2023/01/05 18:10:45;;;;;;;;;;;;;;;19.09;37.65;101800.22;10628017;27;789;-60
2023/01/05 18:15:46;;;;;;;;;;;;;;;19.15;37.39;101818.41;10627932;27;1906;-58
2023/01/05 18:20:46;;;;;;;;;;;;;;;19.18;37.75;101831.50;10626928;27;860;-61
2023/01/05 18:25:46;;;;;;;;;;;;;;;19.19;36.98;101833.22;10609713;27;1198;-57
2023/01/05 18:30:46;;;;;;;;;;;;;;;19.54;40.72;101838.66;10627267;27;935;-57
2023/01/05 18:35:46;;;;;;;;;;;;;;;19.78;40.95;101849.31;10626148;27;1906;-57
2023/01/05 18:40:48;;;;;;;;;;;;;;;19.73;41.08;101862.16;10627517;27;866;-61
2023/01/05 18:45:54;;;;;;;;;;;;;;;19.70;41.18;101857.88;10626892;27;1267;-58
2023/01/05 18:50:54;;;;;;;;;;;;;;;19.65;41.58;101858.22;10626598;28;935;-59
2023/01/05 18:55:55;;;;;;;;;;;;;;;19.55;41.06;101872.34;10626709;27;1905;-60
2023/01/05 19:00:55;;;;;;;;;;;;;;;19.47;40.83;101883.53;10626071;28;919;-59
2023/01/05 19:05:55;;;;;;;;;;;;;;;19.46;40.81;101892.47;10626387;27;1602;-63
2023/01/05 19:10:55;;;;;;;;;;;;;;;19.50;40.03;101886.00;10626229;28;856;-60
2023/01/05 19:15:59;;;;;;;;;;;;;;;19.28;39.22;101891.13;10633976;27;1917;-62
2023/01/05 19:20:59;;;;;;;;;;;;;;;19.28;38.11;101894.66;10633987;27;926;-63
2023/01/05 19:26:01;;;;;;;;;;;;;;;19.28;37.86;101897.31;10635009;27;1179;-61
2023/01/05 19:31:02;;;;;;;;;;;;;;;19.08;38.43;101892.53;10615474;27;852;-62
2023/01/05 19:36:03;;;;;;;;;;;;;;;19.06;38.00;101897.16;10633149;27;1965;-62
2023/01/05 19:41:07;;;;;;;;;;;;;;;19.19;37.83;101891.78;10634162;27;936;-61
2023/01/05 19:46:11;;;;;;;;;;;;;;;19.27;38.64;101892.09;10597571;27;1208;-61
2023/01/05 19:51:16;;;;;;;;;;;;;;;19.00;38.63;101891.38;10614806;27;977;-58
2023/01/05 19:56:16;;;;;;;;;;;;;;;18.86;37.32;101908.31;10632790;27;1901;-58
2023/01/05 20:01:17;;;;;;;;;;;;;;;18.97;37.35;101923.53;10632261;27;946;-58
2023/01/05 20:06:18;;;;;;;;;;;;;;;19.03;37.29;101934.63;10632744;27;1192;-58
2023/01/05 20:11:34;;;;;;;;;;;;;;;19.09;36.55;101947.50;10631343;27;887;-59
2023/01/05 20:16:35;;;;;;;;;;;;;;;19.06;36.64;101936.22;10596658;27;1954;-58
2023/01/05 20:21:35;;;;;;;;;;;;;;;19.08;36.68;101929.81;10631751;27;993;-58
2023/01/05 20:26:35;;;;;;;;;;;;;;;19.12;36.81;101933.13;10629266;27;1180;-61
2023/01/05 20:31:36;;;;;;;;;;;;;;;19.09;37.06;101933.31;10630300;27;871;-59
2023/01/05 20:36:36;;;;;;;;;;;;;;;19.07;37.25;101952.06;10630140;27;1913;-58
2023/01/05 20:41:37;;;;;;;;;;;;;;;19.01;37.31;101955.16;10631484;27;868;-58
2023/01/05 20:46:41;;;;;;;;;;;;;;;19.07;37.23;101961.88;10631280;27;1259;-58
2023/01/05 20:51:41;;;;;;;;;;;;;;;19.02;37.96;101977.31;10630466;27;1120;-60
2023/01/05 20:56:42;;;;;;;;;;;;;;;19.05;37.92;101990.41;10630611;27;1976;-57
2023/01/05 21:01:43;;;;;;;;;;;;;;;19.04;37.56;101984.25;10634395;27;785;-58
2023/01/05 21:06:43;;;;;;;;;;;;;;;19.02;37.45;101987.97;10630307;27;1247;-59
2023/01/05 21:11:44;;;;;;;;;;;;;;;19.17;37.67;101979.75;10629544;27;936;-57
2023/01/05 21:16:45;;;;;;;;;;;;;;;19.11;37.37;101971.34;10630159;27;1913;-58
2023/01/05 21:21:45;;;;;;;;;;;;;;;19.08;37.43;101975.06;10629098;27;781;-58
2023/01/05 21:26:45;;;;;;;;;;;;;;;19.11;37.82;101992.66;10628746;27;1277;-61
2023/01/05 21:31:45;;;;;;;;;;;;;;;19.19;37.82;101995.63;10629413;27;1063;-59
2023/01/05 21:36:47;;;;;;;;;;;;;;;19.21;37.68;102002.56;10627406;27;1918;-62
2023/01/05 21:47:06;;;;;;;;;;;;;;;19.20;37.65;102043.47;10613388;27;614;-63
2023/01/05 21:57:27;;;;;;;;;;;;;;;19.28;37.89;102053.59;10627769;27;1976;-58
2023/01/05 22:02:27;;;;;;;;;;;;;;;19.21;38.11;102052.31;10627999;27;1171;-57
2023/01/05 22:07:27;;;;;;;;;;;;;;;19.21;37.95;102058.50;10628367;27;958;-58
2023/01/05 22:12:27;;;;;;;;;;;;;;;19.03;38.03;102065.06;10630105;27;1269;-61
2023/01/05 22:17:28;;;;;;;;;;;;;;;18.89;38.37;102073.97;10628497;27;1914;-62
2023/01/05 22:22:28;;;;;;;;;;;;;;;18.88;38.35;102087.38;10628243;27;1273;-63
2023/01/05 22:27:28;;;;;;;;;;;;;;;18.84;38.40;102099.22;10629511;27;823;-63
2023/01/05 22:32:28;;;;;;;;;;;;;;;18.72;38.57;102116.81;10627478;27;1171;-63
2023/01/05 22:37:28;;;;;;;;;;;;;;;18.63;38.76;102116.56;10626463;27;1909;-64
2023/01/05 22:42:29;;;;;;;;;;;;;;;18.52;38.72;102115.44;10626598;27;1271;-63
2023/01/05 22:47:29;;;;;;;;;;;;;;;18.48;38.73;102115.72;10626719;27;931;-64
2023/01/05 22:52:29;;;;;;;;;;;;;;;18.39;38.93;102129.59;10627357;27;1196;-61
2023/01/05 22:57:29;;;;;;;;;;;;;;;18.31;38.88;102118.63;10627002;28;1905;-63
2023/01/05 23:02:30;;;;;;;;;;;;;;;18.27;38.85;102106.47;10626932;27;1281;-58
2023/01/05 23:07:30;;;;;;;;;;;;;;;18.25;38.68;102108.34;10626644;28;920;-63
2023/01/05 23:12:30;;;;;;;;;;;;;;;18.26;38.59;102108.25;10625977;27;1212;-63
2023/01/05 23:17:31;;;;;;;;;;;;;;;18.21;38.51;102093.56;10626266;28;1906;-58
2023/01/05 23:22:31;;;;;;;;;;;;;;;18.22;38.49;102092.63;10607585;27;1192;-58
2023/01/05 23:27:31;;;;;;;;;;;;;;;18.22;38.31;102105.91;10625890;28;920;-64
2023/01/05 23:32:31;;;;;;;;;;;;;;;18.22;38.40;102113.88;10626570;27;1341;-64
2023/01/05 23:37:31;;;;;;;;;;;;;;;18.18;39.10;102109.69;10625286;28;1913;-63
2023/01/05 23:42:45;;;;;;;;;;;;;;;18.10;38.93;102123.47;10625762;27;1257;-64
2023/01/05 23:47:45;;;;;;;;;;;;;;;18.08;38.79;102117.38;10625929;28;784;-64
2023/01/05 23:52:45;;;;;;;;;;;;;;;18.07;38.77;102116.56;10610991;27;1210;-62
2023/01/05 23:57:45;;;;;;;;;;;;;;;18.12;39.05;102130.41;10628778;27;1960;-57
